createdAt,value
2018-04-27T00:00:16.640Z,14.10
2018-04-27T00:02:44.434Z,13.33
2018-04-27T00:05:12.111Z,14.33
2018-04-27T00:07:39.777Z,13.33
2018-04-27T00:10:08.240Z,13.30
2018-04-27T00:12:36.652Z,13.57
2018-04-27T00:15:04.360Z,12.83
2018-04-27T00:17:32.666Z,14.50
2018-04-27T00:20:01.076Z,14.20
2018-04-27T00:22:28.718Z,12.10
2018-04-27T00:24:57.345Z,13.43
2018-04-27T00:27:24.993Z,13.27
2018-04-27T00:29:52.775Z,11.33
2018-04-27T00:32:20.728Z,11.67
2018-04-27T00:34:48.610Z,12.27
2018-04-27T00:37:16.473Z,12.57
2018-04-27T00:39:44.326Z,12.20
2018-04-27T00:42:11.965Z,12.27
2018-04-27T00:44:39.765Z,13.07
2018-04-27T00:47:07.837Z,13.73
2018-04-27T00:49:36.425Z,13.37
2018-04-27T00:52:04.188Z,11.73
2018-04-27T00:54:31.882Z,13.10
2018-04-27T00:57:01.251Z,12.47
2018-04-27T00:59:29.837Z,11.70
2018-04-27T01:01:57.525Z,12.60
2018-04-27T01:04:25.173Z,11.47
2018-04-27T01:06:53.022Z,13.20
2018-04-27T01:09:20.872Z,13.30
2018-04-27T01:11:48.523Z,12.40
2018-04-27T01:14:16.159Z,12.60
2018-04-27T01:16:44.764Z,13.07
2018-04-27T01:19:13.379Z,13.77
2018-04-27T01:21:41.252Z,13.37
2018-04-27T01:24:08.957Z,12.47
2018-04-27T01:26:37.369Z,12.60
2018-04-27T01:29:05.069Z,13.27
2018-04-27T01:31:33.002Z,13.20
2018-04-27T01:34:00.729Z,12.63
2018-04-27T01:36:29.140Z,12.87
2018-04-27T01:38:57.067Z,12.57
2018-04-27T01:41:25.488Z,12.00
2018-04-27T01:43:53.132Z,11.93
2018-04-27T01:46:20.812Z,11.80
2018-04-27T01:48:48.599Z,10.83
2018-04-27T01:51:16.263Z,10.50
2018-04-27T01:53:44.118Z,10.23
2018-04-27T01:56:11.892Z,9.87
2018-04-27T01:58:40.158Z,10.00
2018-04-27T02:01:08.428Z,10.67
2018-04-27T02:03:36.077Z,11.43
2018-04-27T02:06:03.809Z,10.53
2018-04-27T02:08:31.841Z,10.10
2018-04-27T02:10:59.496Z,9.97
2018-04-27T02:13:27.136Z,10.63
2018-04-27T02:15:55.331Z,10.57
2018-04-27T02:18:23.207Z,10.10
2018-04-27T02:20:51.068Z,10.37
2018-04-27T02:23:18.910Z,10.67
2018-04-27T02:25:46.545Z,11.40
2018-04-27T02:28:15.183Z,10.80
2018-04-27T02:30:43.254Z,10.53
2018-04-27T02:33:11.129Z,9.90
2018-04-27T02:35:38.781Z,10.50
2018-04-27T02:38:06.476Z,10.93
2018-04-27T02:40:35.621Z,9.40
2018-04-27T02:43:03.340Z,10.00
2018-04-27T02:45:31.808Z,9.17
2018-04-27T02:47:59.641Z,9.00
2018-04-27T02:50:27.289Z,9.20
2018-04-27T02:52:55.587Z,9.27
2018-04-27T02:55:23.451Z,9.60
2018-04-27T02:57:51.100Z,9.27
2018-04-27T03:00:18.982Z,9.30
2018-04-27T03:02:46.638Z,9.47
2018-04-27T03:05:15.428Z,8.90
2018-04-27T03:07:43.385Z,9.07
2018-04-27T03:10:11.044Z,8.80
2018-04-27T03:12:38.688Z,10.00
2018-04-27T03:15:06.377Z,9.73
2018-04-27T03:17:34.249Z,10.23
2018-04-27T03:20:02.505Z,10.00
2018-04-27T03:22:30.197Z,10.30
2018-04-27T03:24:57.847Z,10.47
2018-04-27T03:27:25.508Z,10.80
2018-04-27T03:29:53.208Z,10.43
2018-04-27T03:32:20.853Z,11.00
2018-04-27T03:34:48.695Z,9.87
2018-04-27T03:37:16.401Z,10.57
2018-04-27T03:39:45.048Z,12.40
2018-04-27T03:42:12.910Z,27.60
2018-04-27T03:44:40.969Z,13.80
2018-04-27T03:47:08.744Z,13.37
2018-04-27T03:49:36.508Z,12.73
2018-04-27T03:52:06.422Z,12.73
2018-04-27T03:54:34.296Z,13.03
2018-04-27T03:57:02.061Z,13.63
2018-04-27T03:59:42.003Z,15.83
2018-04-27T04:02:21.525Z,12.33
2018-04-27T04:05:01.164Z,24.73
2018-04-27T04:07:29.149Z,17.67
2018-04-27T04:09:56.788Z,16.33
2018-04-27T04:12:24.656Z,18.60
2018-04-27T04:14:52.451Z,18.87
2018-04-27T04:17:20.110Z,38.30
2018-04-27T04:19:48.056Z,14.50
2018-04-27T04:22:15.697Z,15.13
2018-04-27T04:24:44.329Z,12.67
2018-04-27T04:27:12.192Z,11.93
2018-04-27T04:29:40.060Z,11.43
2018-04-27T04:32:07.714Z,11.63
2018-04-27T04:34:35.564Z,10.93
2018-04-27T04:37:03.205Z,10.87
2018-04-27T04:39:31.608Z,11.90
2018-04-27T04:41:59.320Z,12.40
2018-04-27T04:44:28.473Z,12.40
2018-04-27T04:46:56.116Z,12.50
2018-04-27T04:49:23.920Z,11.87
2018-04-27T04:51:51.596Z,10.67
2018-04-27T04:54:19.243Z,12.00
2018-04-27T04:56:47.304Z,10.93
2018-04-27T04:59:14.957Z,11.43
2018-04-27T05:01:42.600Z,11.23
2018-04-27T05:04:10.716Z,10.63
2018-04-27T05:06:38.568Z,11.67
2018-04-27T05:09:06.218Z,13.03
2018-04-27T05:11:33.916Z,13.77
2018-04-27T05:14:01.769Z,15.03
2018-04-27T05:16:29.624Z,15.87
2018-04-27T05:19:12.277Z,16.70
2018-04-27T05:21:40.106Z,14.90
2018-04-27T05:24:07.765Z,13.17
2018-04-27T05:26:35.832Z,14.03
2018-04-27T05:29:03.706Z,15.47
2018-04-27T05:31:31.373Z,18.07
2018-04-27T05:33:59.100Z,14.57
2018-04-27T05:36:26.887Z,15.23
2018-04-27T05:38:54.761Z,15.97
2018-04-27T05:41:22.478Z,15.40
2018-04-27T05:43:50.903Z,14.43
2018-04-27T05:46:18.769Z,12.77
2018-04-27T05:48:46.482Z,12.30
2018-04-27T05:51:14.919Z,11.80
2018-04-27T05:53:42.713Z,12.37
2018-04-27T05:56:11.567Z,11.80
2018-04-27T05:58:39.252Z,11.70
2018-04-27T06:01:06.897Z,11.43
2018-04-27T06:03:46.730Z,12.00
2018-04-27T06:06:14.809Z,11.83
2018-04-27T06:08:42.676Z,12.20
2018-04-27T06:11:10.380Z,11.47
2018-04-27T06:13:38.795Z,10.43
2018-04-27T06:16:06.460Z,10.60
2018-04-27T06:18:34.279Z,11.33
2018-04-27T06:21:01.936Z,10.53
2018-04-27T06:23:30.360Z,10.20
2018-04-27T06:25:58.235Z,9.53
2018-04-27T06:28:26.005Z,9.17
2018-04-27T06:30:53.676Z,8.97
2018-04-27T06:33:21.361Z,7.83
2018-04-27T06:35:49.001Z,6.77
2018-04-27T06:38:16.738Z,6.00
2018-04-27T06:40:44.440Z,5.03
2018-04-27T06:43:12.096Z,5.30
2018-04-27T06:45:39.817Z,5.13
2018-04-27T06:48:07.534Z,5.47
2018-04-27T06:50:35.201Z,5.17
2018-04-27T06:53:02.848Z,5.43
2018-04-27T06:55:30.558Z,10.23
2018-04-27T06:57:58.988Z,5.70
2018-04-27T07:00:26.705Z,4.80
2018-04-27T07:02:54.580Z,4.93
2018-04-27T07:05:22.297Z,5.07
2018-04-27T07:07:50.053Z,5.73
2018-04-27T07:10:17.860Z,5.10
2018-04-27T07:12:45.521Z,6.67
2018-04-27T07:15:13.156Z,5.40
2018-04-27T07:17:41.001Z,4.97
2018-04-27T07:20:08.644Z,5.13
2018-04-27T07:22:36.349Z,5.50
2018-04-27T07:25:04.848Z,5.77
2018-04-27T07:27:33.474Z,6.03
2018-04-27T07:30:01.140Z,5.33
2018-04-27T07:32:29.003Z,5.63
2018-04-27T07:34:57.417Z,6.10
2018-04-27T07:37:25.092Z,5.93
2018-04-27T07:39:53.769Z,5.13
2018-04-27T07:42:21.594Z,5.50
2018-04-27T07:44:49.268Z,5.70
2018-04-27T07:47:17.313Z,4.93
2018-04-27T07:49:45.106Z,5.60
2018-04-27T07:52:12.762Z,9.37
2018-04-27T07:54:40.469Z,5.27
2018-04-27T07:57:08.924Z,4.70
2018-04-27T07:59:36.765Z,4.73
2018-04-27T08:02:04.739Z,4.30
2018-04-27T08:04:32.600Z,4.27
2018-04-27T08:07:00.464Z,4.77
2018-04-27T08:09:28.416Z,4.33
2018-04-27T08:11:56.116Z,4.73
2018-04-27T08:14:23.973Z,5.03
2018-04-27T08:16:52.013Z,4.50
2018-04-27T08:19:19.684Z,4.77
2018-04-27T08:21:47.464Z,4.20
2018-04-27T08:24:15.168Z,3.87
2018-04-27T08:26:42.992Z,3.87
2018-04-27T08:29:10.688Z,4.40
2018-04-27T08:31:38.564Z,4.77
2018-04-27T08:34:07.081Z,4.80
2018-04-27T08:36:35.453Z,4.20
2018-04-27T08:39:03.217Z,4.70
2018-04-27T08:41:30.858Z,4.60
2018-04-27T08:43:59.262Z,3.93
2018-04-27T08:46:27.331Z,5.07
2018-04-27T08:48:55.118Z,5.20
2018-04-27T08:51:22.981Z,4.90
2018-04-27T08:53:50.932Z,5.00
2018-04-27T08:56:18.817Z,4.90
2018-04-27T08:58:46.501Z,5.20
2018-04-27T09:01:14.345Z,5.57
2018-04-27T09:03:42.026Z,5.70
2018-04-27T09:06:10.469Z,6.30
2018-04-27T09:08:38.341Z,5.93
2018-04-27T09:11:06.226Z,5.17
2018-04-27T09:13:33.886Z,5.43
2018-04-27T09:16:01.729Z,4.93
2018-04-27T09:18:29.370Z,4.97
2018-04-27T09:20:57.824Z,5.70
2018-04-27T09:23:26.533Z,4.50
2018-04-27T09:25:55.176Z,5.25
2018-04-27T09:28:22.854Z,4.40
2018-04-27T09:30:51.510Z,4.45
2018-04-27T09:33:19.173Z,4.60
2018-04-27T09:35:48.220Z,4.50
2018-04-27T09:38:16.116Z,4.62
2018-04-27T09:40:44.005Z,4.12
2018-04-27T09:43:11.708Z,4.57
2018-04-27T09:45:39.839Z,4.20
2018-04-27T09:48:07.544Z,4.50
2018-04-27T09:50:35.464Z,4.50
2018-04-27T09:53:03.417Z,4.32
2018-04-27T09:55:31.299Z,6.00
2018-04-27T09:57:59.175Z,4.25
2018-04-27T10:00:27.133Z,4.55
2018-04-27T10:02:54.834Z,5.22
2018-04-27T10:05:22.500Z,4.03
2018-04-27T10:07:50.841Z,4.68
2018-04-27T10:10:18.542Z,3.95
2018-04-27T10:12:46.212Z,3.87
2018-04-27T10:15:14.025Z,4.10
2018-04-27T10:17:41.702Z,4.10
2018-04-27T10:20:09.380Z,3.78
2018-04-27T10:22:38.021Z,4.40
2018-04-27T10:25:05.677Z,4.18
2018-04-27T10:27:33.570Z,4.68
2018-04-27T10:30:01.290Z,3.92
2018-04-27T10:32:29.151Z,3.42
2018-04-27T10:34:57.023Z,3.78
2018-04-27T10:37:24.978Z,4.05
2018-04-27T10:39:52.860Z,4.37
2018-04-27T10:42:20.520Z,4.15
2018-04-27T10:44:48.270Z,4.37
2018-04-27T10:47:15.976Z,3.87
2018-04-27T10:49:44.428Z,3.83
2018-04-27T10:52:12.603Z,7.82
2018-04-27T10:54:40.302Z,8.05
2018-04-27T10:57:08.227Z,4.40
2018-04-27T10:59:36.089Z,4.05
2018-04-27T11:02:03.917Z,4.03
2018-04-27T11:04:31.588Z,3.92
2018-04-27T11:06:59.492Z,3.87
2018-04-27T11:09:27.196Z,4.00
2018-04-27T11:11:55.021Z,4.10
2018-04-27T11:14:23.068Z,3.70
2018-04-27T11:16:51.237Z,4.22
2018-04-27T11:19:18.689Z,4.18
2018-04-27T11:21:46.582Z,3.70
2018-04-27T11:24:14.260Z,4.03
2018-04-27T11:26:41.945Z,3.80
2018-04-27T11:29:10.697Z,3.60
2018-04-27T11:31:38.357Z,4.00
2018-04-27T11:34:06.226Z,4.55
2018-04-27T11:36:34.395Z,7.03
2018-04-27T11:39:02.269Z,4.50
2018-04-27T11:41:29.946Z,3.70
2018-04-27T11:43:57.649Z,3.60
2018-04-27T11:46:26.283Z,8.55
2018-04-27T11:48:54.137Z,4.03
2018-04-27T11:51:22.118Z,6.50
2018-04-27T11:53:50.584Z,3.78
2018-04-27T11:56:18.268Z,3.47
2018-04-27T11:58:50.013Z,3.92
2018-04-27T12:01:17.741Z,3.60
2018-04-27T12:03:45.717Z,3.92
2018-04-27T12:06:13.609Z,3.65
2018-04-27T12:08:41.275Z,4.20
2018-04-27T12:11:08.961Z,4.12
2018-04-27T12:13:37.592Z,3.70
2018-04-27T12:16:05.487Z,3.60
2018-04-27T12:18:34.172Z,3.87
2018-04-27T12:21:02.126Z,3.70
2018-04-27T12:23:29.798Z,3.83
2018-04-27T12:25:58.156Z,3.70
2018-04-27T12:28:26.021Z,3.00
2018-04-27T12:30:53.997Z,3.72
2018-04-27T12:33:21.693Z,3.70
2018-04-27T12:35:49.848Z,4.40
2018-04-27T12:38:17.544Z,4.60
2018-04-27T12:40:46.003Z,4.20
2018-04-27T12:43:13.970Z,4.10
2018-04-27T12:45:41.650Z,4.15
2018-04-27T12:48:10.302Z,3.87
2018-04-27T12:50:39.271Z,4.33
2018-04-27T12:53:07.136Z,3.47
2018-04-27T12:55:35.285Z,4.93
2018-04-27T12:58:03.169Z,4.30
2018-04-27T13:00:30.813Z,4.97
2018-04-27T13:02:58.448Z,5.17
2018-04-27T13:05:27.064Z,4.00
2018-04-27T13:07:54.972Z,4.37
2018-04-27T13:10:23.436Z,5.03
2018-04-27T13:12:51.432Z,5.83
2018-04-27T13:15:19.112Z,5.17
2018-04-27T13:17:47.740Z,5.07
2018-04-27T13:20:15.712Z,4.63
2018-04-27T13:22:43.349Z,5.13
2018-04-27T13:25:10.989Z,4.90
2018-04-27T13:27:39.657Z,4.40
2018-04-27T13:30:08.303Z,4.83
2018-04-27T13:32:36.070Z,4.83
2018-04-27T13:35:04.729Z,4.63
2018-04-27T13:37:32.384Z,5.00
2018-04-27T13:40:00.071Z,4.13
2018-04-27T13:42:27.920Z,4.30
2018-04-27T13:44:55.709Z,4.40
2018-04-27T13:47:23.574Z,4.53
2018-04-27T13:49:51.748Z,3.97
2018-04-27T13:52:19.628Z,4.30
2018-04-27T13:54:47.479Z,4.70
2018-04-27T13:57:15.351Z,5.30
2018-04-27T13:59:43.214Z,4.23
2018-04-27T14:02:10.885Z,4.37
2018-04-27T14:04:39.049Z,4.53
2018-04-27T14:07:06.717Z,4.80
2018-04-27T14:09:34.657Z,4.93
2018-04-27T14:12:02.362Z,5.77
2018-04-27T14:14:30.016Z,4.75
2018-04-27T14:16:57.743Z,4.65
2018-04-27T14:19:25.734Z,4.05
2018-04-27T14:21:53.416Z,5.72
2018-04-27T14:24:21.926Z,3.75
2018-04-27T14:26:49.819Z,4.95
2018-04-27T14:29:18.432Z,4.20
2018-04-27T14:31:46.296Z,4.50
2018-04-27T14:34:14.160Z,3.95
2018-04-27T14:36:42.023Z,4.35
2018-04-27T14:39:09.900Z,4.25
2018-04-27T14:41:38.549Z,4.68
2018-04-27T14:44:06.208Z,4.47
2018-04-27T14:46:33.983Z,4.53
2018-04-27T14:49:01.731Z,4.60
2018-04-27T14:51:29.398Z,4.43
2018-04-27T14:53:57.081Z,4.15
2018-04-27T14:56:25.090Z,4.30
2018-04-27T14:58:52.760Z,4.43
2018-04-27T15:01:20.501Z,4.20
2018-04-27T15:03:48.552Z,5.63
2018-04-27T15:06:16.188Z,5.83
2018-04-27T15:08:44.824Z,6.10
2018-04-27T15:11:12.555Z,6.23
2018-04-27T15:13:40.452Z,4.73
2018-04-27T15:16:08.101Z,4.20
2018-04-27T15:18:35.956Z,4.53
2018-04-27T15:21:03.588Z,4.40
2018-04-27T15:23:32.007Z,4.07
2018-04-27T15:25:59.865Z,3.47
2018-04-27T15:28:27.576Z,3.93
2018-04-27T15:30:55.325Z,4.17
2018-04-27T15:33:23.309Z,3.93
2018-04-27T15:35:51.740Z,3.93
2018-04-27T15:38:19.421Z,4.10
2018-04-27T15:40:47.370Z,4.12
2018-04-27T15:43:15.253Z,4.18
2018-04-27T15:45:43.127Z,4.72
2018-04-27T15:48:11.089Z,5.07
2018-04-27T15:50:38.793Z,4.97
2018-04-27T15:53:06.475Z,4.85
2018-04-27T15:55:34.185Z,5.37
2018-04-27T15:58:02.053Z,4.50
2018-04-27T16:00:30.732Z,5.00
2018-04-27T16:02:59.462Z,4.25
2018-04-27T16:05:27.156Z,4.80
2018-04-27T16:07:55.043Z,4.35
2018-04-27T16:10:22.816Z,4.78
2018-04-27T16:12:50.517Z,4.72
2018-04-27T16:15:18.276Z,4.35
2018-04-27T16:17:46.184Z,5.87
2018-04-27T16:20:13.972Z,5.40
2018-04-27T16:22:42.657Z,4.90
2018-04-27T16:25:10.601Z,5.15
2018-04-27T16:27:38.283Z,5.62
2018-04-27T16:30:06.057Z,5.45
2018-04-27T16:32:33.911Z,5.27
2018-04-27T16:35:01.592Z,5.40
2018-04-27T16:37:29.489Z,6.27
2018-04-27T16:39:58.541Z,6.80
2018-04-27T16:42:26.406Z,8.33
2018-04-27T16:44:54.266Z,6.97
2018-04-27T16:47:22.316Z,6.20
2018-04-27T16:49:49.956Z,5.60
2018-04-27T16:52:18.591Z,6.47
2018-04-27T16:54:46.963Z,5.10
2018-04-27T16:57:14.612Z,4.43
2018-04-27T16:59:42.506Z,4.73
2018-04-27T17:02:10.567Z,4.80
2018-04-27T17:04:38.241Z,4.97
2018-04-27T17:07:05.910Z,5.33
2018-04-27T17:09:33.616Z,4.93
2018-04-27T17:12:01.350Z,4.40
2018-04-27T17:14:30.013Z,5.07
2018-04-27T17:16:57.701Z,4.57
2018-04-27T17:19:25.415Z,5.47
2018-04-27T17:21:53.301Z,5.00
2018-04-27T17:24:21.561Z,4.53
2018-04-27T17:26:49.373Z,5.20
2018-04-27T17:29:17.992Z,4.70
2018-04-27T17:31:45.862Z,5.33
2018-04-27T17:34:13.528Z,5.60
2018-04-27T17:36:41.417Z,5.77
2018-04-27T17:39:10.098Z,5.33
2018-04-27T17:41:38.497Z,6.10
2018-04-27T17:44:06.341Z,5.50
2018-04-27T17:46:34.293Z,5.40
2018-04-27T17:49:02.076Z,5.70
2018-04-27T17:51:29.717Z,4.87
2018-04-27T17:53:57.604Z,5.50
2018-04-27T17:56:25.241Z,5.47
2018-04-27T17:58:52.869Z,5.57
2018-04-27T18:01:21.329Z,5.90
2018-04-27T18:03:49.013Z,5.80
2018-04-27T18:06:17.446Z,5.77
2018-04-27T18:08:45.493Z,6.60
2018-04-27T18:11:13.129Z,6.33
2018-04-27T18:13:41.756Z,6.30
2018-04-27T18:16:09.609Z,6.33
2018-04-27T18:18:37.284Z,6.77
2018-04-27T18:21:04.956Z,6.30
2018-04-27T18:23:33.123Z,6.93
2018-04-27T18:26:00.773Z,6.80
2018-04-27T18:28:28.421Z,6.90
2018-04-27T18:30:56.112Z,7.60
2018-04-27T18:33:24.044Z,7.77
2018-04-27T18:35:52.447Z,7.67
2018-04-27T18:38:20.626Z,8.67
2018-04-27T18:40:48.302Z,9.20
2018-04-27T18:43:15.976Z,8.17
2018-04-27T18:45:44.643Z,9.50
2018-04-27T18:48:13.428Z,8.93
2018-04-27T18:50:41.164Z,9.73
2018-04-27T18:53:09.053Z,8.97
2018-04-27T18:55:36.869Z,8.73
2018-04-27T18:58:05.417Z,8.57
2018-04-27T19:00:34.273Z,8.47
2018-04-27T19:03:01.977Z,8.70
2018-04-27T19:05:31.558Z,7.90
2018-04-27T19:07:59.499Z,8.47
2018-04-27T19:10:36.074Z,8.33
2018-04-27T19:13:03.796Z,7.53
2018-04-27T19:15:32.233Z,7.97
2018-04-27T19:18:02.753Z,8.10
2018-04-27T19:20:30.469Z,8.40
2018-04-27T19:23:14.478Z,8.67
2018-04-27T19:25:46.800Z,8.77
2018-04-27T19:28:14.637Z,9.47
2018-04-27T19:30:42.320Z,8.83
2018-04-27T19:33:11.165Z,8.50
2018-04-27T19:35:38.954Z,9.13
2018-04-27T19:38:06.815Z,9.30
2018-04-27T19:40:34.537Z,8.13
2018-04-27T19:43:02.226Z,8.40
2018-04-27T19:45:30.659Z,8.60
2018-04-27T19:47:58.371Z,9.13
2018-04-27T19:50:26.256Z,8.47
2018-04-27T19:52:54.114Z,8.10
2018-04-27T19:55:21.858Z,8.87
2018-04-27T19:57:49.512Z,8.97
2018-04-27T20:00:17.189Z,8.33
2018-04-27T20:02:45.081Z,8.23
2018-04-27T20:05:17.430Z,7.60
2018-04-27T20:07:45.145Z,8.73
2018-04-27T20:10:13.556Z,8.20
2018-04-27T20:12:42.009Z,8.40
2018-04-27T20:15:09.738Z,8.47
2018-04-27T20:17:37.606Z,9.03
2018-04-27T20:20:06.066Z,8.40
2018-04-27T20:22:36.220Z,8.23
2018-04-27T20:25:04.855Z,8.13
2018-04-27T20:27:33.344Z,8.60
2018-04-27T20:30:03.920Z,8.17
2018-04-27T20:32:31.791Z,8.53
2018-04-27T20:34:59.490Z,8.33
2018-04-27T20:37:27.339Z,9.20
2018-04-27T20:39:55.009Z,9.37
2018-04-27T20:42:22.677Z,8.90
2018-04-27T20:44:50.567Z,9.93
2018-04-27T20:47:18.252Z,10.30
2018-04-27T20:49:46.098Z,9.67
2018-04-27T20:52:14.265Z,9.70
2018-04-27T20:54:42.139Z,9.17
2018-04-27T20:57:09.817Z,9.27
2018-04-27T20:59:37.847Z,9.00
2018-04-27T21:02:05.541Z,7.73
2018-04-27T21:04:33.393Z,8.77
2018-04-27T21:07:01.245Z,8.57
2018-04-27T21:09:29.029Z,8.97
2018-04-27T21:11:56.731Z,8.80
2018-04-27T21:14:24.442Z,8.27
2018-04-27T21:16:52.323Z,8.80
2018-04-27T21:19:20.006Z,8.40
2018-04-27T21:21:48.565Z,8.00
2018-04-27T21:24:16.336Z,8.20
2018-04-27T21:26:44.013Z,8.07
2018-04-27T21:29:16.104Z,6.70
2018-04-27T21:31:44.564Z,7.03
2018-04-27T21:34:13.220Z,6.93
2018-04-27T21:36:42.730Z,7.70
2018-04-27T21:39:10.505Z,6.90
2018-04-27T21:41:47.678Z,6.20
2018-04-27T21:44:35.182Z,6.80
2018-04-27T21:47:08.980Z,6.17
2018-04-27T21:49:36.667Z,6.33
2018-04-27T21:52:05.128Z,6.50
2018-04-27T21:54:33.673Z,8.33
2018-04-27T21:57:26.509Z,7.97
2018-04-27T21:59:58.632Z,8.00
2018-04-27T22:02:51.896Z,7.97
2018-04-27T22:05:31.667Z,8.90
2018-04-27T22:07:59.349Z,8.33
2018-04-27T22:10:27.037Z,8.50
2018-04-27T22:12:58.366Z,7.97
2018-04-27T22:15:26.024Z,7.93
2018-04-27T22:17:53.700Z,8.70
2018-04-27T22:20:33.149Z,9.67
2018-04-27T22:23:01.585Z,8.87
2018-04-27T22:25:29.265Z,9.80
2018-04-27T22:28:02.769Z,9.73
2018-04-27T22:30:32.629Z,10.67
2018-04-27T22:33:00.293Z,10.13
2018-04-27T22:35:36.161Z,10.30
2018-04-27T22:38:04.026Z,9.63
2018-04-27T22:40:39.968Z,10.63
2018-04-27T22:43:14.398Z,11.20
2018-04-27T22:45:44.017Z,11.00
2018-04-27T22:48:23.472Z,10.70
2018-04-27T22:50:55.822Z,10.37
2018-04-27T22:53:27.288Z,10.17
2018-04-27T22:55:55.139Z,10.73
2018-04-27T22:58:23.202Z,9.93
2018-04-27T23:01:01.913Z,10.50
2018-04-27T23:03:33.358Z,10.10
2018-04-27T23:06:01.025Z,9.87
2018-04-27T23:08:28.706Z,9.10
2018-04-27T23:11:13.674Z,9.10
2018-04-27T23:13:43.072Z,8.47
2018-04-27T23:16:10.935Z,7.97
2018-04-27T23:18:42.693Z,8.80
2018-04-27T23:21:12.545Z,7.63
2018-04-27T23:23:41.602Z,7.40
2018-04-27T23:26:09.404Z,7.67
2018-04-27T23:28:37.862Z,7.67
2018-04-27T23:31:05.536Z,7.17
2018-04-27T23:33:35.321Z,7.27
2018-04-27T23:36:02.969Z,7.57
2018-04-27T23:38:30.640Z,7.97
2018-04-27T23:40:59.989Z,8.10
2018-04-27T23:43:27.644Z,8.23
2018-04-27T23:45:57.004Z,8.00
2018-04-27T23:48:24.724Z,8.13
2018-04-27T23:50:57.921Z,7.23
2018-04-27T23:53:28.912Z,8.77
2018-04-27T23:55:56.589Z,7.27
2018-04-27T23:58:27.093Z,7.67
